• Join FlightAware (Why Join?)
  • Login
  • US Flag 
05:59AM EDT


 

Airport Tracker/Info


-or-


 

Live Flight TrackerFlight Track Log ✈ EJA951 ✈ 15-May-2013 ✈ KAPF - KBCT

Flight Track Log - Related Links

Times and Time Zones

All times are in EDT time to prevent confusion due to time zone crossing. See the EJA951 flight status page for this flight to view local times or setup timezone preferences in your user account.

Time Position Orientation Groundspeed Altitude Reporting Facility
EDT Latitude Longitude Course Direction KTS MPH feet Rate Location/Type
07:22PM 26.2183 -81.6708 96° East 254 292 11,000  Level Miami Center
07:23PM 26.2503 -81.5911 66° East 265 305 10,700 -60 Descending Miami Center
07:24PM 26.2969 -81.4981 61° Northeast 305 351 10,900 60 Climbing Miami Center
07:25PM 26.3403 -81.3817 67° East 346 398 10,900  Level Miami Center
07:26PM 26.3878 -81.2628 66° East 394 453 10,900  Level Miami Center
07:27PM 26.1436 -80.8288 96° East  Level FlightAware Approximate
07:27PM 26.4292 -81.1414 69° East 406 467 10,900  Level Miami Center
07:28PM 26.4494 -81.0169 80° East 411 473 11,000  Climbing Miami Center
07:29PM 26.4567 -80.9011 86° East 411 473 11,000 -660 Level Miami Center
07:30PM 26.4644 -80.7786 86° East 377 434 9,700 -1,920 Descending Miami Center
07:31PM 26.4686 -80.6975 87° East 267 307 7,400 -2,220 Descending Miami Center
07:32PM 26.4722 -80.6350 86° East 269 310 5,900 -2,040 Descending Miami Center
07:32PM 26.4792 -80.6072 74° East 273 314 5,200 -780 Descending Miami Center
07:33PM 26.4811 -80.5378 88° East 251 289 4,900 -1,140 Descending Miami Center
07:34PM 26.4703 -80.4700 100° East 265 305 3,300 -1,800 Descending Miami Center
07:34PM 26.4664 -80.4539 105° East 251 289 3,100 -300 Descending Miami Center
07:35PM 26.4511 -80.3975 107° East 247 284 3,000 -60 Descending Miami Center
07:36PM 26.4297 -80.3250 108° East 249 287 3,000 -120 Level Miami Center
07:37PM 26.4086 -80.2572 109° East 224 258 2,800 -600 Descending Miami Center
07:38PM 26.3700 -80.2075 131° Southeast 200 230 1,700 -900 Descending Miami Center
07:39PM 26.3414 -80.1742 134° Southeast 167 192 1,200 -660 Descending Miami Center
07:40PM 26.3528 -80.1372 71° East 127 146 500 -480 Descending Miami Center
07:41PM 26.3639 -80.1053 69° East 105 121 200 2,040 Descending Miami Center
07:42PM 26.3686 -80.0753 80° East 105 121 5,000 4,800 Climbing Miami Center